Time;durP1;ratioP1;P1;durP2;ratioP2;P2;SDS_P1;SDS_P2;PMS_P1;PMS_P2;Temp;Humidity;BMP_temperature;BMP_pressure;BME280_temperature;BME280_humidity;BME280_pressure;Samples;Min_cycle;Max_cycle;Signal;HPM_P1;HPM_P2
2022/08/22 00:02:29;;;;;;;0.50;0.50;;;;;;;;;;12599891;28;20386;-75
2022/08/22 00:09:00;;;;;;;1.45;0.55;;;;;;;;;;12580246;28;20044;-73
2022/08/22 00:15:37;;;;;;;0.37;0.33;;;;;;;;;;12509102;28;20056;-74
2022/08/22 00:21:46;;;;;;;1.10;0.50;;;;;;;;;;12459428;28;20268;-74
2022/08/22 00:27:54;;;;;;;0.50;0.50;;;;;;;;;;12578986;28;20081;-73
2022/08/22 00:34:00;;;;;;;1.00;0.35;;;;;;;;;;12596580;28;20397;-73
2022/08/22 00:40:20;;;;;;;0.73;0.35;;;;;;;;;;12596493;28;20055;-73
2022/08/22 00:46:22;;;;;;;0.60;0.40;;;;;;;;;;12596245;28;20043;-73
2022/08/22 00:52:42;;;;;;;0.47;0.40;;;;;;;;;;12578128;28;20037;-73
2022/08/22 00:58:50;;;;;;;0.40;0.40;;;;;;;;;;12596093;28;20397;-74
2022/08/22 01:04:55;;;;;;;0.40;0.40;;;;;;;;;;12595714;28;20051;-74
2022/08/22 01:11:15;;;;;;;0.40;0.38;;;;;;;;;;12595066;28;20477;-74
2022/08/22 01:17:26;;;;;;;0.45;0.45;;;;;;;;;;12594849;28;20047;-74
2022/08/22 01:23:46;;;;;;;0.60;0.40;;;;;;;;;;12594491;28;20040;-74
2022/08/22 01:30:04;;;;;;;0.30;0.30;;;;;;;;;;12594379;28;20049;-75
2022/08/22 01:36:09;;;;;;;2.85;0.50;;;;;;;;;;12576279;28;20040;-74
2022/08/22 01:42:14;;;;;;;0.77;0.55;;;;;;;;;;12576152;28;20037;-74
2022/08/22 01:48:16;;;;;;;0.90;0.55;;;;;;;;;;12559832;28;20040;-74
2022/08/22 01:54:24;;;;;;;0.75;0.50;;;;;;;;;;12593738;28;20036;-74
2022/08/22 02:00:27;;;;;;;0.57;0.57;;;;;;;;;;12577363;28;20067;-74
2022/08/22 02:06:37;;;;;;;0.40;0.40;;;;;;;;;;12569408;28;20047;-74
2022/08/22 02:12:58;;;;;;;0.85;0.45;;;;;;;;;;12586161;28;20037;-74
2022/08/22 02:18:59;;;;;;;0.50;0.50;;;;;;;;;;12585318;28;20041;-74
2022/08/22 02:25:11;;;;;;;0.50;0.50;;;;;;;;;;12603095;28;20028;-74
2022/08/22 02:31:33;;;;;;;0.63;0.60;;;;;;;;;;12568738;28;20528;-74
2022/08/22 02:37:38;;;;;;;0.73;0.38;;;;;;;;;;12602351;28;20048;-73
2022/08/22 02:44:00;;;;;;;1.05;0.68;;;;;;;;;;12603035;28;20036;-73
2022/08/22 02:50:12;;;;;;;0.30;0.30;;;;;;;;;;12601935;28;20381;-74
2022/08/22 02:56:14;;;;;;;;;;;;;;;;;;12601889;28;20036;-74
2022/08/22 03:02:26;;;;;;;0.40;0.40;;;;;;;;;;12602539;28;19908;-74
2022/08/22 03:08:37;;;;;;;1.63;0.40;;;;;;;;;;12583119;28;20434;-74
2022/08/22 03:14:44;;;;;;;0.63;0.32;;;;;;;;;;12600539;28;20482;-75
2022/08/22 03:20:45;;;;;;;0.70;0.70;;;;;;;;;;12582596;28;20478;-75
2022/08/22 03:27:10;;;;;;;0.70;0.70;;;;;;;;;;12582029;28;20036;-73
2022/08/22 03:33:19;;;;;;;0.63;0.55;;;;;;;;;;12600460;28;20525;-74
2022/08/22 03:39:35;;;;;;;1.48;0.77;;;;;;;;;;12599386;28;20041;-75
2022/08/22 03:45:44;;;;;;;1.23;0.50;;;;;;;;;;12599167;28;20501;-74
2022/08/22 03:51:52;;;;;;;0.50;0.50;;;;;;;;;;12581315;28;20036;-73
2022/08/22 03:58:09;;;;;;;0.90;0.45;;;;;;;;;;12563941;28;20048;-74
2022/08/22 04:04:11;;;;;;;1.35;0.70;;;;;;;;;;12563484;28;20041;-74
2022/08/22 04:10:31;;;;;;;0.70;0.55;;;;;;;;;;12580090;28;20040;-74
2022/08/22 04:16:45;;;;;;;0.70;0.68;;;;;;;;;;12597335;28;20055;-75
2022/08/22 04:23:08;;;;;;;0.52;0.52;;;;;;;;;;12571208;28;20036;-74
2022/08/22 04:29:22;;;;;;;1.30;0.93;;;;;;;;;;12597190;28;20060;-74
2022/08/22 04:35:30;;;;;;;0.63;0.60;;;;;;;;;;12596718;28;20474;-74
2022/08/22 04:41:32;;;;;;;0.70;0.60;;;;;;;;;;12578913;28;20425;-74
2022/08/22 04:47:39;;;;;;;1.33;0.63;;;;;;;;;;12578645;28;20039;-74
2022/08/22 04:53:47;;;;;;;1.67;0.60;;;;;;;;;;12595944;28;20028;-75
2022/08/22 04:59:49;;;;;;;0.82;0.82;;;;;;;;;;12596708;28;20044;-75
2022/08/22 05:05:51;;;;;;;;;;;;;;;;;;12595526;28;20032;-75
2022/08/22 05:11:56;;;;;;;0.70;0.70;;;;;;;;;;12577367;28;19912;-75
2022/08/22 05:18:01;;;;;;;1.42;0.93;;;;;;;;;;12560245;28;20308;-75
2022/08/22 05:24:07;;;;;;;0.70;0.70;;;;;;;;;;12594722;28;20381;-74
2022/08/22 05:30:12;;;;;;;0.70;0.70;;;;;;;;;;12595090;28;20049;-74
2022/08/22 05:36:23;;;;;;;0.93;0.80;;;;;;;;;;12593063;28;20123;-73
2022/08/22 05:42:26;;;;;;;1.55;0.80;;;;;;;;;;12576256;28;20024;-74
2022/08/22 05:48:33;;;;;;;1.40;0.80;;;;;;;;;;12559291;28;20036;-74
2022/08/22 05:54:38;;;;;;;2.58;1.00;;;;;;;;;;12575966;28;20422;-73
2022/08/22 06:00:41;;;;;;;0.90;0.80;;;;;;;;;;12594383;28;20051;-75
2022/08/22 06:06:50;;;;;;;1.05;0.75;;;;;;;;;;12575633;28;20036;-74
2022/08/22 06:12:52;;;;;;;1.52;0.85;;;;;;;;;;12593474;28;20036;-74
2022/08/22 06:18:55;;;;;;;0.80;0.80;;;;;;;;;;12593167;28;20401;-73
2022/08/22 06:25:02;;;;;;;0.60;0.60;;;;;;;;;;12593063;28;20389;-74
2022/08/22 06:31:05;;;;;;;2.10;0.82;;;;;;;;;;12575266;28;20060;-74
2022/08/22 06:37:09;;;;;;;1.10;1.00;;;;;;;;;;12575269;28;20049;-74
2022/08/22 06:43:11;;;;;;;2.30;0.93;;;;;;;;;;12574736;28;20044;-74
2022/08/22 06:49:14;;;;;;;0.80;0.80;;;;;;;;;;12579635;28;20044;-74
2022/08/22 06:55:16;;;;;;;1.00;1.00;;;;;;;;;;12601215;28;20028;-73
2022/08/22 07:01:17;;;;;;;;;;;;;;;;;;12584267;28;20037;-74
2022/08/22 07:07:19;;;;;;;1.97;0.80;;;;;;;;;;12600937;28;19912;-74
2022/08/22 07:13:24;;;;;;;0.70;0.68;;;;;;;;;;12600469;28;20481;-74
2022/08/22 07:19:33;;;;;;;0.85;0.47;;;;;;;;;;12598120;28;20047;-73
2022/08/22 07:25:45;;;;;;;0.55;0.55;;;;;;;;;;12579556;28;20032;-75
2022/08/22 07:31:57;;;;;;;0.57;0.55;;;;;;;;;;12562900;28;20068;-74
2022/08/22 07:38:17;;;;;;;0.30;0.30;;;;;;;;;;12596447;28;20051;-75
2022/08/22 07:44:21;;;;;;;0.50;0.50;;;;;;;;;;12578175;28;20029;-74
2022/08/22 07:50:25;;;;;;;0.52;0.52;;;;;;;;;;12577940;28;20024;-74
2022/08/22 07:56:37;;;;;;;0.35;0.32;;;;;;;;;;12595640;28;20044;-75
2022/08/22 08:02:52;;;;;;;0.63;0.35;;;;;;;;;;12595676;28;20036;-74
2022/08/22 08:08:55;;;;;;;0.47;0.25;;;;;;;;;;12595111;28;20033;-74
2022/08/22 08:14:57;;;;;;;0.38;0.38;;;;;;;;;;12577128;28;20039;-74
2022/08/22 08:21:02;;;;;;;0.73;0.30;;;;;;;;;;12576436;28;20040;-75
2022/08/22 08:33:31;;;;;;;0.30;0.30;;;;;;;;;;12545030;28;20057;-74
2022/08/22 08:39:36;;;;;;;1.20;0.40;;;;;;;;;;12544436;28;20052;-74
2022/08/22 08:45:58;;;;;;;0.30;0.30;;;;;;;;;;12544975;28;20032;-74
2022/08/22 08:52:15;;;;;;;0.32;0.32;;;;;;;;;;12526580;28;20413;-74
2022/08/22 08:58:20;;;;;;;0.25;0.20;;;;;;;;;;12509814;28;20045;-73
2022/08/22 09:04:37;;;;;;;0.40;0.40;;;;;;;;;;12525722;28;20048;-74
2022/08/22 09:10:51;;;;;;;0.43;0.30;;;;;;;;;;12543087;28;20032;-74
2022/08/22 09:17:11;;;;;;;1.23;0.40;;;;;;;;;;12542771;28;20097;-74
2022/08/22 09:23:33;;;;;;;0.22;0.22;;;;;;;;;;12542691;28;20033;-75
2022/08/22 09:29:36;;;;;;;1.08;0.45;;;;;;;;;;12542384;28;20414;-74
2022/08/22 09:36:02;;;;;;;0.70;0.30;;;;;;;;;;12574080;28;20040;-75
2022/08/22 09:42:14;;;;;;;0.88;0.35;;;;;;;;;;12564667;28;20490;-74
2022/08/22 09:48:35;;;;;;;0.88;0.38;;;;;;;;;;12593952;28;20040;-76
2022/08/22 09:54:48;;;;;;;0.52;0.32;;;;;;;;;;12593948;28;20036;-75
2022/08/22 10:01:01;;;;;;;0.40;0.40;;;;;;;;;;12576177;28;20080;-75
2022/08/22 10:07:21;;;;;;;0.52;0.30;;;;;;;;;;12593545;28;20221;-75
2022/08/22 10:13:29;;;;;;;0.30;0.20;;;;;;;;;;12575533;28;20029;-75
2022/08/22 10:19:37;;;;;;;0.43;0.20;;;;;;;;;;12574961;28;20055;-75
2022/08/22 10:26:06;;;;;;;0.20;0.20;;;;;;;;;;12584626;28;20045;-74
2022/08/22 10:32:11;;;;;;;0.25;0.20;;;;;;;;;;12579244;28;20036;-75
2022/08/22 10:38:22;;;;;;;0.20;0.20;;;;;;;;;;12581479;28;20044;-74
2022/08/22 10:44:47;;;;;;;0.30;0.30;;;;;;;;;;12580947;28;20040;-75
2022/08/22 10:50:52;;;;;;;0.40;0.30;;;;;;;;;;12581104;28;20401;-74
2022/08/22 10:56:58;;;;;;;0.95;0.30;;;;;;;;;;12598751;28;20067;-73
2022/08/22 11:03:06;;;;;;;0.20;0.20;;;;;;;;;;12583537;28;20032;-73
2022/08/22 11:09:11;;;;;;;0.30;0.30;;;;;;;;;;12566594;28;20040;-74
2022/08/22 11:15:17;;;;;;;0.30;0.30;;;;;;;;;;12566490;28;20485;-74
2022/08/22 11:21:28;;;;;;;0.20;0.20;;;;;;;;;;12582367;28;20052;-74
2022/08/22 11:27:44;;;;;;;1.00;0.25;;;;;;;;;;12600073;28;20025;-74
2022/08/22 11:33:55;;;;;;;0.52;0.40;;;;;;;;;;12598402;28;20040;-75
2022/08/22 11:40:13;;;;;;;0.30;0.30;;;;;;;;;;12599215;28;20401;-73
2022/08/22 11:46:24;;;;;;;0.52;0.40;;;;;;;;;;12582036;28;20048;-73
2022/08/22 11:52:31;;;;;;;0.20;0.20;;;;;;;;;;12599043;28;20024;-75
2022/08/22 11:58:41;;;;;;;0.13;0.13;;;;;;;;;;12564049;28;20067;-74
2022/08/22 12:04:50;;;;;;;0.70;0.30;;;;;;;;;;12598621;28;20405;-75
2022/08/22 12:10:57;;;;;;;0.30;0.30;;;;;;;;;;12580353;28;20033;-75
2022/08/22 12:17:03;;;;;;;0.47;0.30;;;;;;;;;;12597631;28;20043;-74
2022/08/22 12:23:14;;;;;;;0.28;0.28;;;;;;;;;;12563229;28;20039;-75
2022/08/22 12:29:15;;;;;;;;;;;;;;;;;;12580137;28;20433;-74
2022/08/22 12:35:20;;;;;;;0.30;0.30;;;;;;;;;;12596957;28;19919;-73
2022/08/22 12:41:41;;;;;;;0.10;0.10;;;;;;;;;;12597380;28;20516;-74
2022/08/22 12:47:49;;;;;;;0.32;0.30;;;;;;;;;;12577936;28;20039;-75
2022/08/22 12:54:03;;;;;;;0.20;0.20;;;;;;;;;;12561244;28;20032;-75
2022/08/22 13:00:11;;;;;;;0.20;0.20;;;;;;;;;;12596495;28;20445;-74
2022/08/22 13:06:32;;;;;;;0.30;0.20;;;;;;;;;;12595598;28;20033;-74
2022/08/22 13:12:40;;;;;;;0.20;0.20;;;;;;;;;;12577225;28;20037;-75
2022/08/22 13:18:47;;;;;;;0.40;0.30;;;;;;;;;;12577678;28;20044;-74
2022/08/22 13:24:53;;;;;;;0.38;0.20;;;;;;;;;;12594710;28;20031;-74
2022/08/22 13:30:56;;;;;;;0.10;0.10;;;;;;;;;;12577097;28;20061;-74
2022/08/22 13:36:59;;;;;;;0.43;0.20;;;;;;;;;;12594705;28;20052;-74
2022/08/22 13:43:04;;;;;;;0.47;0.30;;;;;;;;;;12593989;28;20059;-75
2022/08/22 13:49:09;;;;;;;0.30;0.20;;;;;;;;;;12593994;28;20135;-74
2022/08/22 13:55:32;;;;;;;0.30;0.20;;;;;;;;;;12576149;28;20037;-74
2022/08/22 14:01:52;;;;;;;0.30;0.30;;;;;;;;;;12559443;28;20053;-74
2022/08/22 14:07:54;;;;;;;0.20;0.20;;;;;;;;;;12593561;28;20037;-74
2022/08/22 14:13:58;;;;;;;0.20;0.20;;;;;;;;;;12593156;28;20052;-74
2022/08/22 14:20:02;;;;;;;0.55;0.20;;;;;;;;;;12593422;28;20036;-74
2022/08/22 14:26:04;;;;;;;0.52;0.30;;;;;;;;;;12575232;28;20043;-74
2022/08/22 14:32:28;;;;;;;0.20;0.20;;;;;;;;;;12592229;28;20082;-74
2022/08/22 14:38:38;;;;;;;0.93;0.38;;;;;;;;;;12592626;28;20045;-74
2022/08/22 14:44:58;;;;;;;0.20;0.20;;;;;;;;;;12592869;28;20037;-74
2022/08/22 14:51:09;;;;;;;0.22;0.22;;;;;;;;;;12575036;28;20036;-74
2022/08/22 14:57:12;;;;;;;0.30;0.30;;;;;;;;;;12591632;28;20032;-74
2022/08/22 15:03:20;;;;;;;0.88;0.40;;;;;;;;;;12574220;28;20048;-75
2022/08/22 15:09:41;;;;;;;0.30;0.30;;;;;;;;;;12577553;28;20393;-73
2022/08/22 15:15:46;;;;;;;0.47;0.30;;;;;;;;;;12600642;28;20036;-74
2022/08/22 15:21:49;;;;;;;0.38;0.38;;;;;;;;;;12582894;28;20036;-74
2022/08/22 15:27:59;;;;;;;0.70;0.30;;;;;;;;;;12582129;28;20378;-74
2022/08/22 15:34:05;;;;;;;0.95;0.30;;;;;;;;;;12582152;28;20460;-74
2022/08/22 15:40:13;;;;;;;0.28;0.28;;;;;;;;;;12599766;28;20037;-74
2022/08/22 15:46:28;;;;;;;0.32;0.17;;;;;;;;;;12599682;28;20482;-73
2022/08/22 15:52:31;;;;;;;0.82;0.22;;;;;;;;;;12565017;28;20040;-74
2022/08/22 15:58:39;;;;;;;0.20;0.20;;;;;;;;;;12581047;28;20044;-74
2022/08/22 16:04:50;;;;;;;0.73;0.20;;;;;;;;;;12580094;28;20028;-75
2022/08/22 16:11:12;;;;;;;0.20;0.20;;;;;;;;;;12580247;28;20033;-73
2022/08/22 16:17:39;;;;;;;0.38;0.20;;;;;;;;;;12597363;28;20051;-73
2022/08/22 16:23:50;;;;;;;0.13;0.13;;;;;;;;;;12578708;28;20036;-74
2022/08/22 16:29:59;;;;;;;0.13;0.10;;;;;;;;;;12597911;28;20075;-74
2022/08/22 16:36:15;;;;;;;0.10;0.10;;;;;;;;;;12596860;28;20036;-75
2022/08/22 16:42:18;;;;;;;0.20;0.20;;;;;;;;;;12562007;28;20036;-75
2022/08/22 16:48:23;;;;;;;0.10;0.10;;;;;;;;;;12595899;28;20039;-75
2022/08/22 16:54:41;;;;;;;0.30;0.13;;;;;;;;;;12595796;28;20433;-75
2022/08/22 17:00:42;;;;;;;0.57;0.20;;;;;;;;;;12596139;28;20406;-75
2022/08/22 17:07:10;;;;;;;0.30;0.17;;;;;;;;;;12577227;28;20156;-74
2022/08/22 17:13:21;;;;;;;0.20;0.20;;;;;;;;;;12595530;28;20509;-75
2022/08/22 17:19:23;;;;;;;0.38;0.20;;;;;;;;;;12576694;28;20489;-75
2022/08/22 17:25:34;;;;;;;0.20;0.20;;;;;;;;;;12594678;28;20404;-74
2022/08/22 17:31:55;;;;;;;0.10;0.10;;;;;;;;;;12576622;28;20053;-73
2022/08/22 17:38:22;;;;;;;0.20;0.10;;;;;;;;;;12577399;28;20059;-73
2022/08/22 17:44:29;;;;;;;0.70;0.28;;;;;;;;;;12576461;28;20040;-74
2022/08/22 17:50:38;;;;;;;1.00;0.20;;;;;;;;;;12594220;28;20131;-74
2022/08/22 17:56:46;;;;;;;0.20;0.20;;;;;;;;;;12576003;28;20040;-74
2022/08/22 18:03:14;;;;;;;0.20;0.20;;;;;;;;;;12575734;28;20036;-73
2022/08/22 18:09:31;;;;;;;0.10;0.10;;;;;;;;;;12554250;28;20415;-74
2022/08/22 18:15:45;;;;;;;1.30;0.63;;;;;;;;;;12575451;28;20032;-74
2022/08/22 18:21:47;;;;;;;0.55;0.25;;;;;;;;;;12575193;28;20040;-74
2022/08/22 18:27:51;;;;;;;0.65;0.22;;;;;;;;;;12593043;28;20064;-73
2022/08/22 18:34:00;;;;;;;0.30;0.10;;;;;;;;;;12591168;28;20028;-74
2022/08/22 18:40:13;;;;;;;0.20;0.20;;;;;;;;;;12592743;28;20494;-74
2022/08/22 18:46:34;;;;;;;0.30;0.30;;;;;;;;;;12582204;28;20029;-74
2022/08/22 18:52:37;;;;;;;0.43;0.40;;;;;;;;;;12601656;28;20033;-72
2022/08/22 18:58:43;;;;;;;0.98;0.30;;;;;;;;;;12602425;28;20052;-73
2022/08/22 19:04:45;;;;;;;0.25;0.25;;;;;;;;;;12601733;28;20040;-73
2022/08/22 19:11:01;;;;;;;0.38;0.30;;;;;;;;;;12600961;28;20041;-74
2022/08/22 19:17:21;;;;;;;1.33;0.50;;;;;;;;;;12566397;28;20397;-75
2022/08/22 19:23:36;;;;;;;0.30;0.30;;;;;;;;;;12600612;28;20041;-75
2022/08/22 19:29:40;;;;;;;0.40;0.40;;;;;;;;;;12600269;28;20413;-75
2022/08/22 19:35:51;;;;;;;0.85;0.40;;;;;;;;;;12600028;28;20028;-74
2022/08/22 19:41:55;;;;;;;0.60;0.50;;;;;;;;;;12582017;28;20055;-75
2022/08/22 19:48:06;;;;;;;0.50;0.50;;;;;;;;;;12581253;28;20033;-75
2022/08/22 19:54:20;;;;;;;0.57;0.50;;;;;;;;;;12580542;28;20040;-75
2022/08/22 20:00:23;;;;;;;1.70;1.40;;;;;;;;;;12581370;28;20298;-74
2022/08/22 20:06:37;;;;;;;1.73;1.17;;;;;;;;;;12598409;28;20033;-74
2022/08/22 20:12:45;;;;;;;2.22;1.40;;;;;;;;;;12598333;28;20024;-74
2022/08/22 20:19:08;;;;;;;1.20;1.10;;;;;;;;;;12597698;28;20045;-74
2022/08/22 20:25:18;;;;;;;0.68;0.68;;;;;;;;;;12581073;28;20158;-74
2022/08/22 20:31:23;;;;;;;0.90;0.80;;;;;;;;;;12580018;28;20052;-74
2022/08/22 20:37:30;;;;;;;0.88;0.73;;;;;;;;;;12597086;28;20417;-74
2022/08/22 20:43:34;;;;;;;1.00;0.70;;;;;;;;;;12562559;28;20039;-73
2022/08/22 20:49:56;;;;;;;1.10;0.70;;;;;;;;;;12596445;28;20040;-74
2022/08/22 20:55:58;;;;;;;0.70;0.70;;;;;;;;;;12578436;28;20047;-74
2022/08/22 21:02:02;;;;;;;0.52;0.52;;;;;;;;;;12596992;28;20052;-75
2022/08/22 21:08:06;;;;;;;2.05;1.00;;;;;;;;;;12577484;28;20481;-73
2022/08/22 21:14:17;;;;;;;1.17;1.05;;;;;;;;;;12595281;28;20033;-74
2022/08/22 21:20:20;;;;;;;1.00;0.90;;;;;;;;;;12577308;28;20041;-75
2022/08/22 21:26:31;;;;;;;1.30;1.10;;;;;;;;;;12576926;28;20032;-73
2022/08/22 21:32:33;;;;;;;;;;;;;;;;;;12595688;28;20405;-74
2022/08/22 21:38:36;;;;;;;1.42;1.02;;;;;;;;;;12560331;28;19928;-74
2022/08/22 21:44:42;;;;;;;1.13;0.82;;;;;;;;;;12594357;28;20490;-74
2022/08/22 21:50:43;;;;;;;1.17;0.95;;;;;;;;;;12594155;28;20039;-74
2022/08/22 21:56:46;;;;;;;1.70;1.00;;;;;;;;;;12576381;28;20044;-75
2022/08/22 22:02:48;;;;;;;1.10;0.70;;;;;;;;;;12593560;28;20037;-74
2022/08/22 22:08:49;;;;;;;;;;;;;;;;;;12594011;28;20029;-74
2022/08/22 22:14:51;;;;;;;1.13;0.90;;;;;;;;;;12593518;28;20124;-74
2022/08/22 22:20:52;;;;;;;;;;;;;;;;;;12600157;28;20313;-74
2022/08/22 22:26:54;;;;;;;1.90;0.80;;;;;;;;;;12602171;28;20309;-75
2022/08/22 22:32:57;;;;;;;0.80;0.80;;;;;;;;;;12584370;28;20060;-74
2022/08/22 22:38:59;;;;;;;0.85;0.70;;;;;;;;;;12602954;28;20046;-74
2022/08/22 22:45:00;;;;;;;0.75;0.70;;;;;;;;;;12602507;28;20025;-74
2022/08/22 22:51:02;;;;;;;;;;;;;;;;;;12602939;28;20025;-75
2022/08/22 22:57:03;;;;;;;1.10;1.00;;;;;;;;;;12601876;28;19916;-74
2022/08/22 23:03:05;;;;;;;0.55;0.55;;;;;;;;;;12583957;28;20041;-74
2022/08/22 23:09:07;;;;;;;0.85;0.70;;;;;;;;;;12601595;28;20055;-74
2022/08/22 23:15:09;;;;;;;1.50;0.98;;;;;;;;;;12601359;28;20028;-74
2022/08/22 23:21:12;;;;;;;1.02;0.90;;;;;;;;;;12600647;28;20048;-74
2022/08/22 23:27:14;;;;;;;1.30;0.70;;;;;;;;;;12582679;28;20028;-74
2022/08/22 23:33:15;;;;;;;;;;;;;;;;;;12582696;28;20059;-74
2022/08/22 23:39:17;;;;;;;1.17;1.07;;;;;;;;;;12582011;28;19939;-74
2022/08/22 23:45:20;;;;;;;0.80;0.80;;;;;;;;;;12599602;28;20501;-74
2022/08/22 23:51:23;;;;;;;0.80;0.80;;;;;;;;;;12565169;28;20039;-74
2022/08/22 23:57:25;;;;;;;0.90;0.60;;;;;;;;;;12599385;28;20633;-74
